Time;durP1;ratioP1;P1;durP2;ratioP2;P2;SDS_P1;SDS_P2;PMS_P1;PMS_P2;Temp;Humidity;BMP_temperature;BMP_pressure;BME280_temperature;BME280_humidity;BME280_pressure;Samples;Min_cycle;Max_cycle;Signal;HPM_P1;HPM_P2
2023/07/08 00:00:19;;;;;;;6.15;2.97;;;17.10;99.90;;;;;;5047487;28;20218;-68
2023/07/08 00:02:45;;;;;;;5.55;3.50;;;17.20;99.90;;;;;;5043366;28;20037;-68
2023/07/08 00:05:12;;;;;;;4.03;2.75;;;17.20;99.90;;;;;;5064195;28;20122;-69
2023/07/08 00:07:38;;;;;;;5.80;3.08;;;17.20;99.90;;;;;;5046883;28;20708;-68
2023/07/08 00:10:18;;;;;;;6.03;3.28;;;17.20;99.90;;;;;;5045502;28;20055;-68
2023/07/08 00:12:45;;;;;;;7.03;3.17;;;17.20;99.90;;;;;;5062928;28;20040;-69
2023/07/08 00:15:12;;;;;;;6.60;3.00;;;16.90;99.90;;;;;;5061434;28;20048;-68
2023/07/08 00:17:38;;;;;;;6.88;3.38;;;;;;;;;;5036687;28;20060;-68
2023/07/08 00:20:28;;;;;;;5.60;3.15;;;17.10;99.90;;;;;;5045258;28;20056;-68
2023/07/08 00:22:55;;;;;;;4.75;2.63;;;;;;;;;;5045059;28;20049;-68
2023/07/08 00:25:20;;;;;;;6.97;3.45;;;17.00;99.90;;;;;;5044203;28;20127;-69
2023/07/08 00:27:47;;;;;;;6.43;3.50;;;16.90;99.90;;;;;;5064598;28;20050;-68
2023/07/08 00:30:21;;;;;;;9.88;2.67;;;17.00;99.90;;;;;;5039796;28;20048;-68
2023/07/08 00:32:53;;;;;;;4.25;2.67;;;;;;;;;;5045105;28;20440;-68
2023/07/08 00:35:19;;;;;;;5.75;3.00;;;;;;;;;;5063773;28;20048;-68
2023/07/08 00:37:46;;;;;;;5.68;3.10;;;;;;;;;;5048639;28;20165;-68
2023/07/08 00:40:22;;;;;;;9.18;3.95;;;17.10;99.90;;;;;;5046683;28;20045;-68
2023/07/08 00:42:48;;;;;;;7.55;3.17;;;17.00;99.90;;;;;;5044043;28;20085;-68
2023/07/08 00:45:40;;;;;;;8.55;3.30;;;17.00;99.90;;;;;;5040212;28;20048;-68
2023/07/08 00:48:25;;;;;;;7.47;3.65;;;16.90;99.90;;;;;;5045234;28;20493;-68
2023/07/08 00:50:51;;;;;;;5.35;3.33;;;16.80;99.90;;;;;;5046420;28;20143;-68
2023/07/08 00:53:27;;;;;;;6.07;3.45;;;16.70;99.90;;;;;;5046555;28;20080;-69
2023/07/08 00:56:18;;;;;;;7.05;3.72;;;16.60;99.90;;;;;;5052546;28;20091;-68
2023/07/08 00:58:56;;;;;;;6.55;3.53;;;16.70;99.90;;;;;;5064695;28;20040;-68
2023/07/08 01:01:22;;;;;;;8.10;2.85;;;16.70;99.90;;;;;;5057318;28;20043;-68
2023/07/08 01:03:52;;;;;;;6.47;3.33;;;16.60;99.90;;;;;;5059973;28;20037;-68
2023/07/08 01:06:20;;;;;;;8.07;3.80;;;16.70;99.90;;;;;;5062710;28;20049;-69
2023/07/08 01:08:50;;;;;;;7.35;3.67;;;16.50;99.90;;;;;;5059224;28;20609;-68
2023/07/08 01:11:16;;;;;;;6.93;3.72;;;;;;;;;;5043738;28;20049;-68
2023/07/08 01:13:44;;;;;;;9.55;3.40;;;16.60;99.90;;;;;;5063985;28;20516;-68
2023/07/08 01:16:10;;;;;;;9.10;3.50;;;;;;;;;;5062773;28;20048;-68
2023/07/08 01:18:36;;;;;;;5.18;3.35;;;16.40;99.90;;;;;;5046175;28;20129;-68
2023/07/08 01:21:27;;;;;;;4.88;3.78;;;16.60;99.90;;;;;;5028269;28;20490;-68
2023/07/08 01:23:53;;;;;;;8.18;4.03;;;16.50;99.90;;;;;;5044327;28;20112;-68
2023/07/08 01:26:20;;;;;;;5.78;3.45;;;16.50;99.90;;;;;;5046948;28;20053;-68
2023/07/08 01:28:46;;;;;;;7.25;4.15;;;;;;;;;;5045174;28;20071;-68
2023/07/08 01:31:12;;;;;;;8.15;3.30;;;;;;;;;;5030667;28;20048;-68
2023/07/08 01:33:39;;;;;;;8.48;3.70;;;16.50;99.90;;;;;;5061846;28;20045;-68
2023/07/08 01:36:05;;;;;;;8.70;3.63;;;;;;;;;;5045497;28;20045;-67
2023/07/08 01:38:32;;;;;;;5.05;3.67;;;16.30;99.90;;;;;;5060304;28;20052;-68
2023/07/08 01:40:59;;;;;;;5.75;3.50;;;;;;;;;;5045105;28;20048;-68
2023/07/08 01:43:25;;;;;;;5.10;3.50;;;;;;;;;;5045722;28;20117;-68
2023/07/08 01:45:51;;;;;;;7.13;3.75;;;16.40;99.90;;;;;;5046711;28;20130;-67
2023/07/08 01:48:21;;;;;;;7.35;3.78;;;16.20;99.90;;;;;;5060425;28;20048;-68
2023/07/08 01:51:05;;;;;;;6.68;4.13;;;16.20;99.90;;;;;;5060025;28;20605;-68
2023/07/08 01:53:36;;;;;;;7.57;3.60;;;16.10;99.90;;;;;;5063358;28;20056;-68
2023/07/08 01:56:03;;;;;;;8.43;4.30;;;15.90;99.90;;;;;;5048124;28;20049;-68
2023/07/08 01:58:29;;;;;;;8.90;4.60;;;16.10;99.90;;;;;;5045971;28;20041;-68
2023/07/08 02:00:55;;;;;;;5.90;3.38;;;16.00;99.90;;;;;;5058051;28;20045;-68
2023/07/08 02:03:21;;;;;;;5.43;3.80;;;16.20;99.90;;;;;;5066361;28;20037;-68
2023/07/08 02:05:47;;;;;;;9.65;4.05;;;;;;;;;;5049105;28;20090;-68
2023/07/08 02:08:13;;;;;;;11.95;4.10;;;;;;;;;;5049913;28;20052;-68
2023/07/08 02:10:41;;;;;;;7.45;4.45;;;15.90;99.90;;;;;;5065104;28;20079;-68
2023/07/08 02:13:07;;;;;;;6.40;3.45;;;;;;;;;;5068039;28;20628;-68
2023/07/08 02:15:33;;;;;;;11.85;4.30;;;16.10;99.90;;;;;;5037333;28;20049;-68
2023/07/08 02:17:58;;;;;;;7.00;4.00;;;15.90;99.90;;;;;;5068200;28;20040;-68
2023/07/08 02:20:24;;;;;;;9.63;4.30;;;16.00;99.90;;;;;;5046907;28;20140;-68
2023/07/08 02:22:50;;;;;;;9.02;4.57;;;16.00;99.90;;;;;;5049687;28;20048;-68
2023/07/08 02:25:16;;;;;;;6.35;4.22;;;;;;;;;;5064554;28;20044;-68
2023/07/08 02:27:42;;;;;;;6.18;4.28;;;15.90;99.90;;;;;;5047896;28;20109;-68
2023/07/08 02:30:08;;;;;;;5.85;3.83;;;15.80;99.90;;;;;;5063097;28;20043;-68
2023/07/08 02:32:35;;;;;;;7.57;4.25;;;15.90;99.90;;;;;;5049042;28;20055;-68
2023/07/08 02:35:05;;;;;;;9.80;4.18;;;15.90;99.90;;;;;;5062885;28;20049;-68
2023/07/08 02:37:30;;;;;;;8.15;4.50;;;15.70;99.90;;;;;;5063792;28;20040;-68
2023/07/08 02:39:56;;;;;;;6.82;3.95;;;;;;;;;;5041960;28;20119;-68
2023/07/08 02:42:22;;;;;;;9.43;4.70;;;;;;;;;;5066059;28;20048;-68
2023/07/08 02:44:48;;;;;;;6.97;4.00;;;15.80;99.90;;;;;;5067403;28;20048;-68
2023/07/08 02:47:14;;;;;;;9.70;5.13;;;;;;;;;;5047588;28;20045;-68
2023/07/08 02:49:40;;;;;;;9.10;4.47;;;;;;;;;;5050106;28;20354;-68
2023/07/08 02:52:06;;;;;;;8.13;3.85;;;15.60;99.90;;;;;;5044560;28;20044;-68
2023/07/08 02:54:32;;;;;;;6.78;4.53;;;;;;;;;;5067420;28;20158;-68
2023/07/08 02:56:58;;;;;;;7.40;4.47;;;;;;;;;;5042338;28;20041;-68
2023/07/08 02:59:24;;;;;;;10.15;4.38;;;;;;;;;;5064008;28;20036;-68
2023/07/08 03:01:50;;;;;;;9.38;5.00;;;15.80;99.90;;;;;;5066048;28;20032;-68
2023/07/08 03:04:16;;;;;;;8.40;4.13;;;15.90;99.90;;;;;;5067831;28;20044;-68
2023/07/08 03:06:45;;;;;;;7.25;4.47;;;15.60;99.90;;;;;;5056357;28;20504;-68
2023/07/08 03:09:12;;;;;;;8.30;5.00;;;15.70;99.90;;;;;;5056681;28;20073;-68
2023/07/08 03:11:39;;;;;;;10.35;4.55;;;15.60;99.90;;;;;;5064888;28;20514;-68
2023/07/08 03:14:05;;;;;;;6.13;4.35;;;15.80;99.90;;;;;;5065875;28;20068;-68
2023/07/08 03:16:31;;;;;;;9.90;4.57;;;15.70;99.90;;;;;;5030645;28;20741;-68
2023/07/08 03:18:57;;;;;;;9.57;3.92;;;;;;;;;;5049194;28;20037;-67
2023/07/08 03:21:23;;;;;;;6.72;4.40;;;15.60;99.90;;;;;;5066605;28;20482;-67
2023/07/08 03:23:50;;;;;;;7.28;4.13;;;15.70;99.90;;;;;;5065822;28;20040;-68
2023/07/08 03:26:24;;;;;;;9.77;6.22;;;15.80;99.90;;;;;;5048131;28;20052;-68
2023/07/08 03:28:50;;;;;;;9.18;4.72;;;15.60;99.90;;;;;;5061211;28;20482;-68
2023/07/08 03:31:16;;;;;;;8.35;4.35;;;;;;;;;;5043667;28;20116;-68
2023/07/08 03:33:43;;;;;;;9.10;4.72;;;;;;;;;;5046784;28;20766;-68
2023/07/08 03:36:24;;;;;;;7.35;4.75;;;15.40;99.90;;;;;;5047803;28;20052;-68
2023/07/08 03:38:51;;;;;;;8.38;4.25;;;15.60;99.90;;;;;;5042170;28;20103;-68
2023/07/08 03:41:17;;;;;;;9.07;4.10;;;;;;;;;;5023787;28;20143;-68
2023/07/08 03:43:43;;;;;;;6.45;4.22;;;;;;;;;;5042472;28;20124;-67
2023/07/08 03:46:14;;;;;;;7.78;4.57;;;15.70;99.90;;;;;;5042240;28;20132;-68
2023/07/08 03:48:40;;;;;;;7.68;4.80;;;;;;;;;;5044929;28;20052;-68
2023/07/08 03:51:17;;;;;;;6.90;4.65;;;15.50;99.90;;;;;;5064512;28;20036;-68
2023/07/08 03:53:43;;;;;;;7.13;4.85;;;;;;;;;;5044347;28;20052;-68
2023/07/08 03:56:12;;;;;;;9.75;4.35;;;15.70;99.90;;;;;;5063184;28;20061;-68
2023/07/08 03:58:38;;;;;;;8.48;5.10;;;;;;;;;;5043700;28;20040;-68
2023/07/08 04:01:04;;;;;;;7.65;4.88;;;16.00;99.90;;;;;;5045065;28;20716;-68
2023/07/08 04:03:30;;;;;;;6.45;4.30;;;15.80;99.90;;;;;;5045129;28;20044;-68
2023/07/08 04:05:56;;;;;;;6.50;4.53;;;15.80;99.90;;;;;;5046084;28;20059;-68
2023/07/08 04:08:22;;;;;;;9.30;4.85;;;;;;;;;;5048265;28;20050;-68
2023/07/08 04:10:48;;;;;;;10.55;4.72;;;;;;;;;;5065225;28;20149;-68
2023/07/08 04:13:14;;;;;;;13.18;4.95;;;;;;;;;;5048581;28;20135;-68
2023/07/08 04:15:40;;;;;;;12.30;5.00;;;;;;;;;;5065924;28;20040;-68
2023/07/08 04:18:06;;;;;;;13.85;5.28;;;;;;;;;;5066474;28;20032;-68
2023/07/08 04:20:33;;;;;;;7.30;4.68;;;;;;;;;;5047107;28;20654;-68
2023/07/08 04:22:59;;;;;;;9.23;4.82;;;;;;;;;;5047805;28;20171;-68
2023/07/08 04:25:25;;;;;;;6.97;4.85;;;;;;;;;;5047083;28;20119;-68
2023/07/08 04:27:51;;;;;;;10.15;5.38;;;;;;;;;;5047972;28;20059;-68
2023/07/08 04:30:25;;;;;;;7.13;5.38;;;16.00;99.90;;;;;;5046817;28;20048;-68
2023/07/08 04:32:52;;;;;;;8.00;4.80;;;16.00;99.90;;;;;;5065059;28;20449;-68
2023/07/08 04:35:17;;;;;;;12.75;4.97;;;16.10;99.90;;;;;;5047032;28;20513;-68
2023/07/08 04:37:43;;;;;;;6.38;4.40;;;;;;;;;;5046819;28;20040;-67
2023/07/08 04:40:18;;;;;;;10.63;6.13;;;16.00;99.90;;;;;;5046397;28;20106;-68
2023/07/08 04:42:47;;;;;;;10.18;4.70;;;;;;;;;;5062476;28;20061;-67
2023/07/08 04:45:14;;;;;;;7.05;4.30;;;16.30;99.90;;;;;;5066532;28;20122;-68
2023/07/08 04:47:40;;;;;;;7.28;4.55;;;;;;;;;;5061083;28;20044;-68
2023/07/08 04:50:06;;;;;;;5.63;4.03;;;16.60;99.90;;;;;;5045220;28;20145;-68
2023/07/08 04:52:31;;;;;;;5.97;4.30;;;16.50;99.90;;;;;;5046311;28;20094;-69
2023/07/08 04:54:57;;;;;;;5.85;4.53;;;16.80;99.90;;;;;;5063327;28;20044;-68
2023/07/08 04:57:23;;;;;;;6.32;4.53;;;;;;;;;;5062625;28;20051;-68
2023/07/08 04:59:49;;;;;;;7.40;4.40;;;17.20;99.90;;;;;;5057787;28;20076;-68
2023/07/08 05:02:15;;;;;;;7.60;4.38;;;;;;;;;;5042575;28;20141;-68
2023/07/08 05:04:40;;;;;;;7.97;4.30;;;;;;;;;;5065283;28;20055;-68
2023/07/08 05:07:06;;;;;;;6.97;4.22;;;;;;;;;;5039871;28;20045;-68
2023/07/08 05:09:32;;;;;;;5.15;3.63;;;18.80;99.90;;;;;;5062744;28;20032;-68
2023/07/08 05:11:58;;;;;;;6.22;4.10;;;;;;;;;;5041927;28;20139;-69
2023/07/08 05:14:24;;;;;;;6.97;3.53;;;;;;;;;;5059470;28;20063;-68
2023/07/08 05:16:49;;;;;;;8.25;4.30;;;19.00;99.90;;;;;;5039024;28;20102;-68
2023/07/08 05:19:15;;;;;;;5.47;3.58;;;19.20;99.90;;;;;;5046866;28;20044;-68
2023/07/08 05:21:42;;;;;;;7.97;4.47;;;;;;;;;;5067950;28;20063;-68
2023/07/08 05:24:08;;;;;;;7.05;3.70;;;;;;;;;;5053268;28;20076;-68
2023/07/08 05:26:34;;;;;;;7.60;3.28;;;19.20;99.90;;;;;;5070885;28;20469;-68
2023/07/08 05:29:00;;;;;;;7.65;3.63;;;19.10;99.90;;;;;;5049853;28;20059;-68
2023/07/08 05:31:26;;;;;;;4.38;3.53;;;;;;;;;;5071457;28;20107;-68
2023/07/08 05:33:52;;;;;;;5.97;3.13;;;19.60;99.90;;;;;;5070085;28;20044;-68
2023/07/08 05:36:17;;;;;;;8.85;3.65;;;19.80;99.90;;;;;;5053582;28;20032;-68
2023/07/08 05:38:43;;;;;;;4.45;2.95;;;20.30;99.90;;;;;;5069146;28;20029;-68
2023/07/08 05:41:08;;;;;;;5.90;2.90;;;20.30;99.90;;;;;;5071738;28;20044;-68
2023/07/08 05:43:34;;;;;;;6.40;3.50;;;20.40;99.90;;;;;;5048988;28;20068;-67
2023/07/08 05:46:00;;;;;;;5.65;2.83;;;20.80;99.90;;;;;;5051764;28;20821;-68
2023/07/08 05:48:26;;;;;;;7.28;3.00;;;20.80;99.90;;;;;;5068416;28;20076;-69
2023/07/08 05:50:52;;;;;;;5.20;3.15;;;22.40;99.90;;;;;;5071496;28;20078;-69
2023/07/08 05:53:19;;;;;;;6.18;3.35;;;21.60;99.90;;;;;;5044347;28;20063;-69
2023/07/08 05:55:45;;;;;;;5.35;3.05;;;21.80;99.90;;;;;;5050757;28;20041;-68
2023/07/08 05:58:10;;;;;;;4.80;3.45;;;22.00;99.90;;;;;;5048692;28;20485;-68
2023/07/08 06:00:36;;;;;;;5.80;2.60;;;22.00;99.90;;;;;;5051741;28;20033;-69
2023/07/08 06:03:02;;;;;;;5.85;2.75;;;22.30;99.90;;;;;;5047948;28;20075;-68
2023/07/08 06:05:28;;;;;;;6.57;2.88;;;22.50;99.90;;;;;;5051867;28;20479;-68
2023/07/08 06:07:53;;;;;;;4.32;2.42;;;23.00;99.90;;;;;;5037677;28;20040;-68
2023/07/08 06:10:19;;;;;;;4.90;2.65;;;23.30;99.90;;;;;;5039365;28;20068;-68
2023/07/08 06:12:45;;;;;;;7.95;2.70;;;24.00;99.90;;;;;;5046306;28;20040;-68
2023/07/08 06:15:12;;;;;;;6.32;2.58;;;23.90;99.90;;;;;;5050080;28;20055;-69
2023/07/08 06:17:37;;;;;;;4.80;2.20;;;26.00;99.90;;;;;;5050362;28;20048;-69
2023/07/08 06:20:03;;;;;;;4.63;2.40;;;24.60;99.90;;;;;;5051312;28;20028;-69
2023/07/08 06:22:29;;;;;;;6.57;1.92;;;24.90;99.90;;;;;;5044254;28;20419;-69
2023/07/08 06:24:54;;;;;;;3.83;2.42;;;24.80;99.90;;;;;;5060543;28;20123;-69
2023/07/08 06:27:20;;;;;;;6.80;3.05;;;25.80;99.90;;;;;;5049642;28;20126;-69
2023/07/08 06:29:46;;;;;;;5.38;2.05;;;25.50;99.90;;;;;;5054810;28;20028;-69
2023/07/08 06:32:11;;;;;;;4.80;2.25;;;25.90;99.90;;;;;;5051422;28;20045;-69
2023/07/08 06:34:37;;;;;;;14.68;2.80;;;28.10;99.90;;;;;;5045523;28;20059;-68
2023/07/08 06:37:02;;;;;;;4.93;2.22;;;26.60;99.90;;;;;;5040846;28;20095;-69
2023/07/08 06:39:28;;;;;;;4.82;2.25;;;26.80;99.90;;;;;;5055305;28;20032;-71
2023/07/08 06:41:53;;;;;;;4.95;2.25;;;27.70;99.90;;;;;;5061279;28;20041;-70
2023/07/08 06:44:19;;;;;;;3.80;2.33;;;26.20;99.90;;;;;;5053666;28;20743;-70
2023/07/08 06:46:44;;;;;;;5.82;3.05;;;25.70;99.90;;;;;;5037604;28;20479;-70
2023/07/08 06:49:11;;;;;;;4.13;1.85;;;25.80;99.90;;;;;;5037718;28;20417;-70
2023/07/08 06:51:38;;;;;;;5.40;2.00;;;24.30;99.90;;;;;;5044408;28;20123;-70
2023/07/08 06:54:10;;;;;;;4.25;2.30;;;24.00;99.90;;;;;;5062228;28;20135;-70
2023/07/08 06:56:37;;;;;;;4.55;1.90;;;23.40;99.90;;;;;;5051057;28;20532;-70
2023/07/08 06:59:03;;;;;;;4.15;2.13;;;23.00;99.90;;;;;;5048100;28;20180;-69
2023/07/08 07:01:28;;;;;;;5.70;2.03;;;23.10;99.90;;;;;;5067166;28;20044;-70
2023/07/08 07:03:54;;;;;;;6.63;2.05;;;23.40;99.90;;;;;;5052746;28;20182;-70
2023/07/08 07:06:19;;;;;;;4.88;2.15;;;23.00;99.90;;;;;;5062505;28;20083;-70
2023/07/08 07:08:45;;;;;;;2.78;2.08;;;23.00;99.90;;;;;;5071657;28;20355;-69
2023/07/08 07:11:10;;;;;;;3.45;2.10;;;23.40;99.90;;;;;;5050462;28;20094;-69
2023/07/08 07:13:36;;;;;;;4.72;2.30;;;22.90;99.90;;;;;;5043908;28;20071;-69
2023/07/08 07:16:01;;;;;;;8.90;2.70;;;22.80;99.90;;;;;;5030169;28;20097;-70
2023/07/08 07:18:27;;;;;;;3.63;2.13;;;22.90;99.90;;;;;;5049158;28;20045;-69
2023/07/08 07:20:54;;;;;;;5.10;2.20;;;22.80;99.90;;;;;;5051168;28;20044;-69
2023/07/08 07:23:20;;;;;;;3.65;2.10;;;23.10;99.90;;;;;;5052733;28;20041;-70
2023/07/08 07:25:49;;;;;;;4.43;2.33;;;23.10;99.90;;;;;;5066518;28;20036;-70
2023/07/08 07:28:16;;;;;;;3.40;1.80;;;23.30;99.90;;;;;;5074173;28;20044;-70
2023/07/08 07:30:46;;;;;;;4.35;2.58;;;23.10;99.90;;;;;;5046664;28;20049;-70
2023/07/08 07:33:12;;;;;;;8.48;2.47;;;23.10;99.90;;;;;;5065431;28;20040;-70
2023/07/08 07:35:44;;;;;;;3.92;2.30;;;23.30;99.90;;;;;;5050827;28;20040;-70
2023/07/08 07:38:10;;;;;;;3.00;2.00;;;23.30;99.90;;;;;;5051203;28;20044;-69
2023/07/08 07:40:36;;;;;;;3.75;1.88;;;23.30;99.90;;;;;;5046945;28;20039;-71
2023/07/08 07:43:01;;;;;;;4.18;1.90;;;23.40;99.90;;;;;;5059222;28;20098;-69
2023/07/08 07:45:27;;;;;;;5.40;2.30;;;23.40;99.90;;;;;;5062388;28;20576;-72
2023/07/08 07:47:52;;;;;;;7.47;3.13;;;24.70;99.90;;;;;;5042728;28;20090;-70
2023/07/08 07:50:18;;;;;;;5.68;2.00;;;23.50;99.90;;;;;;5071926;28;20123;-68
2023/07/08 07:52:44;;;;;;;3.92;2.17;;;23.70;99.90;;;;;;5055146;28;20414;-68
2023/07/08 07:55:09;;;;;;;4.80;2.22;;;23.60;99.90;;;;;;5030930;28;20131;-68
2023/07/08 07:57:35;;;;;;;6.53;2.25;;;23.90;99.90;;;;;;5071066;28;20397;-69
2023/07/08 08:00:00;;;;;;;4.72;1.73;;;23.90;99.90;;;;;;5068907;28;20147;-68
2023/07/08 08:02:26;;;;;;;5.13;2.08;;;23.70;99.90;;;;;;5047919;28;20076;-69
2023/07/08 08:04:51;;;;;;;6.03;2.28;;;24.10;99.90;;;;;;5069715;28;20067;-68
2023/07/08 08:07:17;;;;;;;3.28;1.67;;;23.90;99.90;;;;;;5065848;28;20044;-69
2023/07/08 08:09:43;;;;;;;3.85;2.05;;;23.80;99.90;;;;;;5039695;28;20461;-69
2023/07/08 08:12:10;;;;;;;4.60;1.92;;;24.10;99.90;;;;;;5050204;28;20662;-69
2023/07/08 08:14:35;;;;;;;6.53;2.08;;;24.10;99.90;;;;;;5067980;28;20073;-69
2023/07/08 08:17:02;;;;;;;4.63;2.05;;;24.20;99.90;;;;;;5044500;28;20032;-69
2023/07/08 08:19:27;;;;;;;6.60;1.90;;;24.10;99.90;;;;;;5048631;28;20044;-69
2023/07/08 08:21:53;;;;;;;3.97;1.77;;;24.20;99.90;;;;;;5064755;28;20052;-68
2023/07/08 08:24:18;;;;;;;6.00;2.13;;;24.20;99.90;;;;;;5045339;28;20044;-68
2023/07/08 08:26:44;;;;;;;3.97;1.67;;;24.50;99.90;;;;;;5065191;28;20086;-68
2023/07/08 08:29:10;;;;;;;19.17;3.05;;;24.20;99.90;;;;;;5058133;28;20221;-68
2023/07/08 08:31:36;;;;;;;6.60;2.50;;;26.00;99.90;;;;;;5063132;28;20600;-68
2023/07/08 08:34:01;;;;;;;5.40;2.28;;;24.80;99.90;;;;;;5037941;28;20040;-68
2023/07/08 08:36:27;;;;;;;5.28;2.22;;;24.40;99.90;;;;;;5043017;28;20059;-68
2023/07/08 08:38:52;;;;;;;3.83;2.33;;;24.40;99.90;;;;;;5066776;28;20051;-68
2023/07/08 08:41:32;;;;;;;4.05;2.03;;;24.80;99.90;;;;;;5047686;28;20062;-68
2023/07/08 08:44:00;;;;;;;4.68;1.83;;;24.90;99.90;;;;;;5060696;28;20481;-68
2023/07/08 08:47:04;;;;;;;6.32;1.95;;;24.80;99.90;;;;;;5063511;28;20521;-68
2023/07/08 08:49:39;;;;;;;4.22;2.10;;;25.10;99.90;;;;;;5026286;28;20097;-68
2023/07/08 08:52:05;;;;;;;8.25;1.98;;;25.10;99.90;;;;;;5064894;28;20051;-69
2023/07/08 08:54:31;;;;;;;3.90;2.00;;;25.30;99.90;;;;;;5062759;28;20044;-69
2023/07/08 08:57:18;;;;;;;9.65;2.40;;;24.90;99.90;;;;;;5064020;28;20561;-68
2023/07/08 08:59:53;;;;;;;4.75;2.28;;;25.20;99.90;;;;;;5064482;28;20051;-68
2023/07/08 09:02:30;;;;;;;6.75;2.22;;;25.30;99.90;;;;;;5064537;28;20093;-69
2023/07/08 09:05:07;;;;;;;6.60;2.63;;;25.40;99.90;;;;;;5058854;28;20399;-68
2023/07/08 09:07:46;;;;;;;6.93;2.00;;;25.50;99.90;;;;;;5046186;28;20049;-69
2023/07/08 09:10:39;;;;;;;4.22;2.17;;;25.60;99.90;;;;;;5044305;28;20052;-68
2023/07/08 09:13:07;;;;;;;5.47;2.25;;;25.40;99.90;;;;;;5039381;28;20505;-69
2023/07/08 09:15:32;;;;;;;6.00;2.10;;;25.80;99.90;;;;;;5047418;28;20044;-68
2023/07/08 09:18:13;;;;;;;7.68;2.00;;;25.60;99.90;;;;;;5065211;28;20064;-69
2023/07/08 09:20:39;;;;;;;6.53;2.15;;;26.70;99.90;;;;;;5040217;28;20517;-69
2023/07/08 09:23:04;;;;;;;5.82;2.25;;;25.60;99.90;;;;;;5058288;28;20037;-69
2023/07/08 09:25:40;;;;;;;4.25;2.22;;;25.50;99.90;;;;;;5063320;28;20052;-69
2023/07/08 09:28:07;;;;;;;4.80;2.50;;;25.90;99.90;;;;;;5067443;28;20524;-69
2023/07/08 09:30:33;;;;;;;6.72;2.42;;;25.90;99.90;;;;;;5040202;28;20046;-68
2023/07/08 09:33:03;;;;;;;4.55;2.38;;;25.70;99.90;;;;;;5069511;28;20048;-69
2023/07/08 09:35:42;;;;;;;7.43;2.47;;;26.00;99.90;;;;;;5068563;28;20113;-69
2023/07/08 09:38:13;;;;;;;7.28;2.17;;;27.30;99.90;;;;;;5065493;28;20041;-69
2023/07/08 09:40:39;;;;;;;4.88;2.25;;;26.00;99.90;;;;;;5072414;28;20207;-68
2023/07/08 09:43:24;;;;;;;5.03;2.25;;;26.10;99.90;;;;;;5067930;28;20560;-68
2023/07/08 09:45:50;;;;;;;6.75;2.63;;;26.10;99.90;;;;;;5053739;28;20049;-68
2023/07/08 09:48:21;;;;;;;4.20;2.40;;;27.20;99.90;;;;;;5043589;28;20055;-69
2023/07/08 09:50:49;;;;;;;7.15;2.53;;;26.40;99.90;;;;;;5048950;28;20510;-68
2023/07/08 09:53:15;;;;;;;5.13;2.42;;;26.30;99.90;;;;;;5063120;28;20945;-69
2023/07/08 09:55:41;;;;;;;7.18;2.58;;;26.50;99.90;;;;;;5074084;28;20048;-68
2023/07/08 09:58:13;;;;;;;5.70;2.28;;;26.50;99.90;;;;;;5061036;28;21130;-69
2023/07/08 10:00:41;;;;;;;6.30;2.78;;;26.60;99.90;;;;;;5066234;28;20041;-69
2023/07/08 10:03:20;;;;;;;8.20;3.38;;;26.80;99.90;;;;;;5061805;28;20036;-69
2023/07/08 10:05:48;;;;;;;6.65;2.70;;;28.40;99.90;;;;;;5044419;28;20086;-69
2023/07/08 10:08:17;;;;;;;5.03;2.88;;;26.70;99.90;;;;;;5040231;28;20067;-69
2023/07/08 10:10:46;;;;;;;3.60;2.30;;;27.20;99.90;;;;;;5062412;28;20117;-69
2023/07/08 10:13:28;;;;;;;4.57;2.28;;;26.90;99.90;;;;;;5066998;28;20440;-69
2023/07/08 10:16:09;;;;;;;3.92;2.28;;;27.00;99.90;;;;;;5068253;28;20040;-69
2023/07/08 10:18:34;;;;;;;4.40;2.20;;;28.50;99.90;;;;;;5051544;28;20037;-69
2023/07/08 10:21:31;;;;;;;5.93;2.35;;;27.30;99.90;;;;;;5056787;28;20461;-69
2023/07/08 10:24:19;;;;;;;3.58;1.88;;;27.30;99.90;;;;;;5051943;28;20049;-69
2023/07/08 10:26:49;;;;;;;6.35;3.17;;;27.40;99.90;;;;;;5044446;28;20598;-69
2023/07/08 10:29:28;;;;;;;5.78;2.30;;;27.30;99.90;;;;;;5049690;28;20115;-68
2023/07/08 10:32:08;;;;;;;6.22;2.67;;;27.60;99.90;;;;;;5047593;28;20075;-68
2023/07/08 10:34:59;;;;;;;5.43;2.60;;;27.60;99.90;;;;;;5050063;28;20041;-67
2023/07/08 10:37:52;;;;;;;9.02;3.00;;;27.70;99.90;;;;;;5066879;28;20044;-71
2023/07/08 10:40:33;;;;;;;5.45;2.67;;;30.20;99.90;;;;;;5062362;28;20044;-69
2023/07/08 10:43:26;;;;;;;5.72;2.40;;;29.30;99.90;;;;;;5049218;28;20075;-69
2023/07/08 10:46:17;;;;;;;7.72;2.47;;;27.90;99.90;;;;;;5060226;28;20417;-70
2023/07/08 10:48:52;;;;;;;4.20;2.30;;;27.90;99.90;;;;;;5042266;28;20036;-70
2023/07/08 10:51:41;;;;;;;7.03;2.55;;;27.80;99.90;;;;;;5048646;28;20048;-70
2023/07/08 10:54:24;;;;;;;4.50;2.42;;;27.80;99.90;;;;;;5047147;28;20088;-70
2023/07/08 10:57:09;;;;;;;3.80;2.60;;;28.20;99.90;;;;;;5067593;28;20722;-70
2023/07/08 10:59:59;;;;;;;5.50;2.78;;;28.20;99.90;;;;;;5065557;28;20127;-68
2023/07/08 11:02:37;;;;;;;6.68;2.13;;;28.50;99.90;;;;;;5065946;28;20040;-67
2023/07/08 11:05:27;;;;;;;3.40;1.85;;;28.40;99.90;;;;;;5065423;28;20102;-68
2023/07/08 11:08:01;;;;;;;5.22;2.05;;;28.30;99.90;;;;;;5067247;28;20044;-69
2023/07/08 11:10:40;;;;;;;4.50;2.45;;;28.50;99.90;;;;;;5064846;28;20052;-68
2023/07/08 11:13:12;;;;;;;4.13;2.03;;;28.50;99.90;;;;;;5066988;28;20177;-69
2023/07/08 11:15:46;;;;;;;4.72;2.60;;;29.00;99.90;;;;;;5048826;28;20052;-69
2023/07/08 11:18:23;;;;;;;3.83;2.72;;;28.60;99.90;;;;;;5062202;28;20820;-69
2023/07/08 11:20:59;;;;;;;3.78;2.13;;;28.80;99.90;;;;;;5047027;28;20550;-69
2023/07/08 11:23:38;;;;;;;4.50;2.72;;;29.00;99.90;;;;;;5042347;28;20496;-69
2023/07/08 11:26:09;;;;;;;8.98;3.08;;;28.80;99.90;;;;;;5031833;28;20115;-69
2023/07/08 11:28:34;;;;;;;5.40;2.10;;;29.00;99.90;;;;;;5046209;28;20107;-69
2023/07/08 11:31:02;;;;;;;5.18;2.58;;;29.20;99.90;;;;;;5067463;28;20701;-69
2023/07/08 11:33:30;;;;;;;3.25;2.17;;;30.30;99.90;;;;;;5042606;28;20048;-68
2023/07/08 11:35:58;;;;;;;3.45;2.20;;;30.10;99.90;;;;;;5065055;28;20070;-68
2023/07/08 11:38:24;;;;;;;10.68;2.60;;;29.30;99.90;;;;;;5065521;28;20565;-69
2023/07/08 11:41:12;;;;;;;5.28;2.25;;;29.50;99.90;;;;;;5031508;28;20076;-69
2023/07/08 11:43:50;;;;;;;6.40;2.22;;;29.30;99.90;;;;;;5064738;28;20043;-70
2023/07/08 11:46:25;;;;;;;5.68;2.33;;;29.20;99.90;;;;;;5046548;28;20044;-69
2023/07/08 11:48:52;;;;;;;5.85;2.13;;;30.30;99.90;;;;;;5046392;28;20052;-69
2023/07/08 11:51:27;;;;;;;3.90;2.10;;;31.00;99.90;;;;;;5066848;28;20145;-69
2023/07/08 11:54:14;;;;;;;3.40;2.00;;;29.70;99.90;;;;;;5064162;28;20093;-68
2023/07/08 11:56:58;;;;;;;5.35;2.60;;;29.40;99.90;;;;;;5065803;28;20082;-69
2023/07/08 11:59:26;;;;;;;3.85;2.20;;;29.50;99.90;;;;;;5028753;28;20036;-69
2023/07/08 12:02:00;;;;;;;3.33;2.03;;;29.80;99.90;;;;;;5065665;28;20032;-68
2023/07/08 12:04:30;;;;;;;;;;;29.60;99.90;;;;;;5047764;28;20036;-69
2023/07/08 12:07:03;;;;;;;5.20;2.28;;;29.80;99.90;;;;;;5066466;28;19920;-68
2023/07/08 12:09:37;;;;;;;4.93;2.87;;;29.80;99.90;;;;;;5060249;28;20046;-68
2023/07/08 12:12:10;;;;;;;8.63;2.53;;;29.60;99.90;;;;;;5066386;28;20350;-68
2023/07/08 12:14:36;;;;;;;3.58;2.40;;;29.70;99.90;;;;;;5046759;28;20081;-68
2023/07/08 12:17:02;;;;;;;5.72;2.78;;;29.80;99.90;;;;;;5062535;28;20117;-68
2023/07/08 12:19:31;;;;;;;5.43;2.33;;;30.00;99.90;;;;;;5043396;28;20052;-69
2023/07/08 12:21:57;;;;;;;6.05;2.78;;;29.70;99.90;;;;;;5047315;28;20059;-68
2023/07/08 12:24:26;;;;;;;4.20;2.35;;;29.60;99.90;;;;;;5046730;28;20122;-68
2023/07/08 12:26:52;;;;;;;5.28;2.47;;;31.60;99.90;;;;;;5068791;28;20682;-68
2023/07/08 12:29:18;;;;;;;5.63;2.70;;;31.30;99.90;;;;;;5061527;28;20090;-68
2023/07/08 12:31:45;;;;;;;5.25;2.88;;;29.70;99.90;;;;;;5061884;28;20494;-69
2023/07/08 12:34:14;;;;;;;4.68;2.90;;;31.40;99.90;;;;;;5039034;28;20066;-68
2023/07/08 12:36:39;;;;;;;4.93;2.80;;;31.40;99.90;;;;;;5060669;28;20612;-68
2023/07/08 12:39:06;;;;;;;6.00;2.83;;;31.30;99.90;;;;;;5042843;28;20111;-70
2023/07/08 12:41:34;;;;;;;7.22;3.42;;;29.80;99.90;;;;;;5048998;28;20084;-68
2023/07/08 12:44:00;;;;;;;7.93;3.10;;;30.20;99.90;;;;;;5064998;28;20064;-69
2023/07/08 12:46:27;;;;;;;5.13;3.05;;;30.20;99.90;;;;;;5045586;28;20383;-68
2023/07/08 12:48:53;;;;;;;4.72;3.25;;;30.20;99.90;;;;;;5044322;28;20040;-68
2023/07/08 12:51:22;;;;;;;6.43;3.50;;;30.10;99.90;;;;;;5047178;28;20404;-69
2023/07/08 12:53:52;;;;;;;6.68;3.00;;;32.20;99.90;;;;;;5045184;28;20080;-68
2023/07/08 12:56:20;;;;;;;5.85;3.10;;;31.80;99.90;;;;;;5044186;28;20056;-68
2023/07/08 12:58:49;;;;;;;6.18;3.00;;;30.00;99.90;;;;;;5065352;28;20503;-68
2023/07/08 13:01:29;;;;;;;6.07;3.35;;;31.80;99.90;;;;;;5064086;28;20047;-69
2023/07/08 13:04:15;;;;;;;5.68;2.85;;;30.10;99.90;;;;;;5047035;28;20120;-69
2023/07/08 13:06:43;;;;;;;8.77;3.35;;;31.50;99.90;;;;;;5064996;28;20040;-68
2023/07/08 13:09:23;;;;;;;5.93;3.25;;;30.40;99.90;;;;;;5040500;28;20060;-68
2023/07/08 13:11:49;;;;;;;7.13;3.38;;;30.60;99.90;;;;;;5064458;28;20072;-68
2023/07/08 13:14:16;;;;;;;4.90;3.00;;;30.40;99.90;;;;;;5065101;28;20079;-68